Time;durP1;ratioP1;P1;durP2;ratioP2;P2;SDS_P1;SDS_P2;PMS_P1;PMS_P2;Temp;Humidity;BMP_temperature;BMP_pressure;BME280_temperature;BME280_humidity;BME280_pressure;Samples;Min_cycle;Max_cycle;Signal;HPM_P1;HPM_P2
2021/09/22 00:00:17;;;;;;;12.70;11.50;;;10.20;99.90;;;;;;5054111;28;20216;-86
2021/09/22 00:02:46;;;;;;;12.50;10.60;;;10.20;99.90;;;;;;5054224;28;20493;-86
2021/09/22 00:05:29;;;;;;;12.50;11.20;;;10.10;99.90;;;;;;5053937;28;20471;-86
2021/09/22 00:07:59;;;;;;;14.85;11.68;;;10.10;99.90;;;;;;5053841;28;20943;-86
2021/09/22 00:10:27;;;;;;;12.77;11.48;;;10.10;99.90;;;;;;5053833;28;20606;-86
2021/09/22 00:12:55;;;;;;;14.80;13.18;;;10.10;99.90;;;;;;5053835;28;20251;-86
2021/09/22 00:15:25;;;;;;;11.50;10.10;;;10.10;99.90;;;;;;5054064;28;20606;-86
2021/09/22 00:17:52;;;;;;;13.13;11.87;;;10.10;99.90;;;;;;5053584;28;20548;-86
2021/09/22 00:20:24;;;;;;;12.40;11.20;;;10.10;99.90;;;;;;5052635;28;20440;-86
2021/09/22 00:22:55;;;;;;;13.37;11.47;;;10.10;99.90;;;;;;5054068;28;20441;-86
2021/09/22 00:25:23;;;;;;;11.87;10.63;;;10.10;99.90;;;;;;5054119;28;20482;-86
2021/09/22 00:27:50;;;;;;;15.57;12.17;;;10.00;99.90;;;;;;5053420;28;20546;-86
2021/09/22 00:30:23;;;;;;;11.93;10.70;;;10.00;99.90;;;;;;5053891;28;20496;-86
2021/09/22 00:32:51;;;;;;;12.87;10.37;;;9.90;99.90;;;;;;5053553;28;20474;-87
2021/09/22 00:35:21;;;;;;;10.40;9.30;;;10.00;99.90;;;;;;5053472;28;20813;-87
2021/09/22 00:37:48;;;;;;;12.93;10.25;;;9.90;99.90;;;;;;5053306;28;20499;-87
2021/09/22 00:40:17;;;;;;;10.87;9.80;;;9.90;99.90;;;;;;5053424;28;20644;-87
2021/09/22 00:42:45;;;;;;;10.80;9.70;;;9.90;99.90;;;;;;5053252;28;20459;-86
2021/09/22 00:45:17;;;;;;;14.37;11.47;;;9.90;99.90;;;;;;5052907;28;20702;-86
2021/09/22 00:47:45;;;;;;;14.43;11.80;;;9.90;99.90;;;;;;5053460;28;20466;-87
2021/09/22 00:50:14;;;;;;;14.98;12.65;;;9.80;99.90;;;;;;5052966;28;20536;-86
2021/09/22 00:52:52;;;;;;;13.13;11.77;;;9.60;99.90;;;;;;5052668;28;20226;-87
2021/09/22 00:55:22;;;;;;;12.52;11.25;;;9.70;99.90;;;;;;5052855;28;20564;-87
2021/09/22 00:57:51;;;;;;;12.32;11.13;;;9.70;99.90;;;;;;5052732;28;20665;-87
2021/09/22 01:00:24;;;;;;;10.97;9.87;;;9.70;99.90;;;;;;5052709;28;20253;-86
2021/09/22 01:02:51;;;;;;;13.05;11.50;;;9.80;99.90;;;;;;5053030;28;20454;-87
2021/09/22 01:05:22;;;;;;;12.32;10.30;;;9.70;99.90;;;;;;5052566;28;20223;-86
2021/09/22 01:07:53;;;;;;;15.32;12.88;;;9.70;99.90;;;;;;5052813;28;20649;-87
2021/09/22 01:10:23;;;;;;;14.10;12.60;;;9.70;99.90;;;;;;5052852;28;20695;-86
2021/09/22 01:12:54;;;;;;;14.10;12.60;;;9.70;99.90;;;;;;5052324;28;20481;-86
2021/09/22 01:15:32;;;;;;;12.87;11.03;;;9.70;99.90;;;;;;5052629;28;20492;-87
2021/09/22 01:17:59;;;;;;;15.05;11.88;;;9.70;99.90;;;;;;5052753;28;20984;-86
2021/09/22 01:20:29;;;;;;;13.40;10.73;;;9.70;99.90;;;;;;5052550;28;20255;-86
2021/09/22 01:23:01;;;;;;;12.45;10.75;;;9.60;99.90;;;;;;5052381;28;20453;-87
2021/09/22 01:25:28;;;;;;;11.90;10.70;;;9.60;99.90;;;;;;5052398;28;20227;-87
2021/09/22 01:27:58;;;;;;;12.90;11.13;;;9.60;99.90;;;;;;5052637;28;20873;-87
2021/09/22 01:30:29;;;;;;;12.63;11.10;;;9.60;99.90;;;;;;5052062;28;21036;-86
2021/09/22 01:33:00;;;;;;;13.50;12.00;;;9.60;99.90;;;;;;5052445;28;20531;-87
2021/09/22 01:35:34;;;;;;;12.70;11.25;;;9.60;99.90;;;;;;5052113;28;20227;-86
2021/09/22 01:38:06;;;;;;;10.88;9.65;;;9.60;99.90;;;;;;5052184;28;20187;-86
2021/09/22 01:40:33;;;;;;;12.60;10.82;;;9.60;99.90;;;;;;5052124;28;20207;-86
2021/09/22 01:43:01;;;;;;;13.70;11.35;;;9.50;99.90;;;;;;5052357;28;20219;-87
2021/09/22 01:45:29;;;;;;;11.68;10.43;;;9.50;99.90;;;;;;5052088;28;20226;-86
2021/09/22 01:47:59;;;;;;;10.80;9.70;;;9.50;99.90;;;;;;5051793;28;20201;-87
2021/09/22 01:50:27;;;;;;;12.90;11.13;;;9.50;99.90;;;;;;5052508;28;20628;-87
2021/09/22 01:52:56;;;;;;;13.48;11.05;;;9.50;99.90;;;;;;5051798;28;20568;-87
2021/09/22 01:55:28;;;;;;;14.02;12.57;;;9.50;99.90;;;;;;5052211;28;20747;-86
2021/09/22 01:57:55;;;;;;;13.13;11.10;;;9.50;99.90;;;;;;5051835;28;20197;-86
2021/09/22 02:00:25;;;;;;;13.20;10.77;;;9.50;99.90;;;;;;5052081;28;20832;-88
2021/09/22 02:02:56;;;;;;;12.73;10.48;;;9.50;99.90;;;;;;5052035;28;20454;-86
2021/09/22 02:05:23;;;;;;;15.20;12.17;;;9.50;99.90;;;;;;5051921;28;20239;-87
2021/09/22 02:07:50;;;;;;;13.48;12.05;;;9.50;99.90;;;;;;5051851;28;20442;-86
2021/09/22 02:10:17;;;;;;;15.70;13.50;;;9.50;99.90;;;;;;5052101;28;20207;-86
2021/09/22 02:12:48;;;;;;;11.57;10.38;;;9.50;99.90;;;;;;5051705;28;20222;-86
2021/09/22 02:15:15;;;;;;;14.20;12.80;;;9.50;99.90;;;;;;5051818;28;20306;-86
2021/09/22 02:17:42;;;;;;;15.75;13.23;;;9.50;99.90;;;;;;5051854;28;20453;-86
2021/09/22 02:20:12;;;;;;;12.88;11.65;;;9.50;99.90;;;;;;5054223;28;20290;-86
2021/09/22 02:22:40;;;;;;;13.85;11.93;;;9.50;99.90;;;;;;5056456;28;20646;-87
2021/09/22 02:25:09;;;;;;;14.13;12.18;;;9.40;99.90;;;;;;5060521;28;20222;-89
2021/09/22 02:27:40;;;;;;;13.15;11.75;;;9.40;99.90;;;;;;5074307;28;20216;-86
2021/09/22 02:30:15;;;;;;;12.05;10.85;;;9.40;99.90;;;;;;5061210;28;20233;-86
2021/09/22 02:32:42;;;;;;;13.27;11.98;;;9.40;99.90;;;;;;5052380;28;20223;-87
2021/09/22 02:35:11;;;;;;;13.68;11.77;;;9.30;99.90;;;;;;5051971;28;20219;-87
2021/09/22 02:37:43;;;;;;;13.15;11.55;;;9.30;99.90;;;;;;5052050;28;20313;-86
2021/09/22 02:40:14;;;;;;;13.60;12.05;;;9.30;99.90;;;;;;5052099;28;20183;-86
2021/09/22 02:42:43;;;;;;;13.75;12.35;;;9.30;99.90;;;;;;5052153;28;20600;-87
2021/09/22 02:45:26;;;;;;;15.80;13.52;;;9.30;99.90;;;;;;5055499;28;20230;-87
2021/09/22 02:47:53;;;;;;;16.02;12.35;;;9.30;99.90;;;;;;5055718;28;20210;-86
2021/09/22 02:50:26;;;;;;;13.98;12.57;;;9.20;99.90;;;;;;5055854;28;20266;-86
2021/09/22 02:52:57;;;;;;;15.40;13.80;;;9.10;99.90;;;;;;5068217;28;20232;-87
2021/09/22 02:55:26;;;;;;;13.48;11.65;;;9.10;99.90;;;;;;5056042;28;20280;-87
2021/09/22 02:57:53;;;;;;;13.02;11.48;;;9.20;99.90;;;;;;5056251;28;20212;-86
2021/09/22 03:00:21;;;;;;;15.98;12.88;;;9.10;99.90;;;;;;5055649;28;20234;-87
2021/09/22 03:02:48;;;;;;;17.02;13.07;;;9.20;99.90;;;;;;5055088;28;20288;-86
2021/09/22 03:05:15;;;;;;;15.07;12.90;;;9.10;99.90;;;;;;5055225;28;20233;-87
2021/09/22 03:07:43;;;;;;;15.75;12.50;;;9.10;99.90;;;;;;5055327;28;20629;-87
2021/09/22 03:10:10;;;;;;;15.35;13.80;;;9.10;99.90;;;;;;5054998;28;20210;-86
2021/09/22 03:12:42;;;;;;;13.32;11.45;;;9.10;99.90;;;;;;5054925;28;20223;-86
2021/09/22 03:15:09;;;;;;;15.68;14.07;;;9.10;99.90;;;;;;5054806;28;20278;-86
2021/09/22 03:17:38;;;;;;;14.07;12.52;;;9.10;99.90;;;;;;5054908;28;20267;-86
2021/09/22 03:20:06;;;;;;;15.83;14.03;;;9.10;99.90;;;;;;5054779;28;20626;-86
2021/09/22 03:22:35;;;;;;;15.18;13.38;;;9.10;99.90;;;;;;5054990;28;20448;-86
2021/09/22 03:25:02;;;;;;;14.55;12.70;;;9.10;99.90;;;;;;5054769;28;20234;-86
2021/09/22 03:27:29;;;;;;;14.55;11.70;;;9.10;99.90;;;;;;5054365;28;20290;-87
2021/09/22 03:29:56;;;;;;;13.70;12.20;;;9.10;99.90;;;;;;5054557;28;20237;-88
2021/09/22 03:32:25;;;;;;;18.40;12.98;;;9.10;99.90;;;;;;5054525;28;20225;-87
2021/09/22 03:34:54;;;;;;;12.68;11.38;;;9.10;99.90;;;;;;5054310;28;20218;-86
2021/09/22 03:37:21;;;;;;;14.88;12.52;;;9.10;99.90;;;;;;5054139;28;20641;-87
2021/09/22 03:39:47;;;;;;;13.20;11.80;;;9.10;99.90;;;;;;5054533;28;20202;-86
2021/09/22 03:42:14;;;;;;;15.30;12.85;;;9.00;99.90;;;;;;5054067;28;20207;-87
2021/09/22 03:44:41;;;;;;;15.82;11.93;;;9.10;99.90;;;;;;5054205;28;20239;-86
2021/09/22 03:47:09;;;;;;;14.10;12.70;;;9.00;99.90;;;;;;5053866;28;20608;-86
2021/09/22 03:49:40;;;;;;;15.50;13.88;;;9.00;99.90;;;;;;5054451;28;20252;-86
2021/09/22 03:52:08;;;;;;;15.77;13.85;;;9.00;99.90;;;;;;5053872;28;20222;-87
2021/09/22 03:54:35;;;;;;;14.20;11.80;;;8.90;99.90;;;;;;5054198;28;20292;-87
2021/09/22 03:57:02;;;;;;;15.93;12.32;;;9.00;99.90;;;;;;5054017;28;20325;-87
2021/09/22 03:59:29;;;;;;;16.20;14.43;;;8.90;99.90;;;;;;5054125;28;20237;-86
2021/09/22 04:01:56;;;;;;;16.55;12.77;;;8.90;99.90;;;;;;5053837;28;20234;-86
2021/09/22 04:04:24;;;;;;;14.20;12.43;;;8.90;99.90;;;;;;5053711;28;20796;-86
2021/09/22 04:06:51;;;;;;;12.73;11.43;;;8.90;99.90;;;;;;5053480;28;20252;-86
2021/09/22 04:09:26;;;;;;;13.88;11.63;;;8.80;99.90;;;;;;5053696;28;20301;-87
2021/09/22 04:11:55;;;;;;;16.35;13.80;;;8.80;99.90;;;;;;5053985;28;20256;-86
2021/09/22 04:14:24;;;;;;;15.68;12.48;;;8.80;99.90;;;;;;5053497;28;20650;-86
2021/09/22 04:16:51;;;;;;;14.40;12.25;;;8.80;99.90;;;;;;5053576;28;20225;-87
2021/09/22 04:19:18;;;;;;;15.65;13.27;;;8.90;99.90;;;;;;5053789;28;20215;-87
2021/09/22 04:21:45;;;;;;;14.80;12.70;;;8.80;99.90;;;;;;5053561;28;20579;-86
2021/09/22 04:24:12;;;;;;;15.05;13.55;;;8.90;99.90;;;;;;5053669;28;20750;-87
2021/09/22 04:26:41;;;;;;;19.15;14.15;;;8.80;99.90;;;;;;5053656;28;20260;-87
2021/09/22 04:29:23;;;;;;;13.52;12.15;;;8.80;99.90;;;;;;5053579;28;20209;-86
2021/09/22 04:31:50;;;;;;;16.75;14.02;;;8.80;99.90;;;;;;5053426;28;20210;-87
2021/09/22 04:34:17;;;;;;;15.40;12.33;;;8.80;99.90;;;;;;5053001;28;20935;-86
2021/09/22 04:36:46;;;;;;;15.23;12.65;;;8.80;99.90;;;;;;5053189;28;20445;-87
2021/09/22 04:39:15;;;;;;;16.88;12.82;;;8.70;99.90;;;;;;5053527;28;20206;-87
2021/09/22 04:41:44;;;;;;;14.63;12.80;;;8.80;99.90;;;;;;5033545;28;20285;-88
2021/09/22 04:44:11;;;;;;;13.82;12.35;;;8.80;99.90;;;;;;5033239;28;20255;-86
2021/09/22 04:46:38;;;;;;;16.27;14.27;;;8.70;99.90;;;;;;5032738;28;20750;-86
2021/09/22 04:49:05;;;;;;;16.60;13.43;;;8.80;99.90;;;;;;5042507;28;20234;-87
2021/09/22 04:51:32;;;;;;;15.77;12.80;;;8.70;99.90;;;;;;5053108;28;20287;-87
2021/09/22 04:54:01;;;;;;;16.95;14.13;;;8.70;99.90;;;;;;5052555;28;20226;-87
2021/09/22 04:56:28;;;;;;;14.90;13.38;;;8.70;99.90;;;;;;5052645;28;20615;-86
2021/09/22 04:58:56;;;;;;;15.48;13.60;;;8.70;99.90;;;;;;5053086;28;20207;-87
2021/09/22 05:01:23;;;;;;;16.85;14.80;;;8.60;99.90;;;;;;5052547;28;20297;-86
2021/09/22 05:03:50;;;;;;;15.13;12.88;;;8.60;99.90;;;;;;5052904;28;20315;-86
2021/09/22 05:06:17;;;;;;;14.25;12.02;;;8.70;99.90;;;;;;5051697;28;20228;-86
2021/09/22 05:08:44;;;;;;;13.23;11.73;;;8.70;99.90;;;;;;5052350;28;20667;-86
2021/09/22 05:11:11;;;;;;;12.85;11.18;;;8.70;99.90;;;;;;5052722;28;20690;-86
2021/09/22 05:13:38;;;;;;;14.88;13.32;;;8.60;99.90;;;;;;5032441;28;20708;-86
2021/09/22 05:16:09;;;;;;;16.30;13.07;;;8.60;99.90;;;;;;5032238;28;20218;-86
2021/09/22 05:18:36;;;;;;;14.45;12.20;;;8.60;99.90;;;;;;5033132;28;20183;-86
2021/09/22 05:21:03;;;;;;;13.60;12.02;;;8.60;99.90;;;;;;5032714;28;20234;-86
2021/09/22 05:23:31;;;;;;;17.20;13.05;;;8.60;99.90;;;;;;5046748;28;20260;-86
2021/09/22 05:25:58;;;;;;;16.98;15.18;;;8.60;99.90;;;;;;5052385;28;20214;-86
2021/09/22 05:28:25;;;;;;;16.52;13.20;;;8.60;99.90;;;;;;5052702;28;20275;-86
2021/09/22 05:30:54;;;;;;;18.85;14.63;;;8.70;99.90;;;;;;5053228;28;20297;-87
2021/09/22 05:33:22;;;;;;;17.33;13.57;;;8.70;99.90;;;;;;5053322;28;20237;-87
2021/09/22 05:35:49;;;;;;;15.85;13.88;;;8.70;99.90;;;;;;5052441;28;20733;-87
2021/09/22 05:38:18;;;;;;;14.55;12.45;;;8.70;99.90;;;;;;5053085;28;20572;-88
2021/09/22 05:41:14;;;;;;;16.23;13.65;;;8.70;99.90;;;;;;5052738;28;20210;-88
2021/09/22 06:17:05;;;;;;;15.37;13.70;;;9.60;99.90;;;;;;5063373;28;20476;-80
2021/09/22 06:19:32;;;;;;;19.25;15.68;;;9.70;99.90;;;;;;5065325;28;20462;-80
2021/09/22 06:21:59;;;;;;;16.48;13.63;;;9.80;99.90;;;;;;5064288;28;20210;-79
2021/09/22 06:24:26;;;;;;;18.80;15.40;;;9.80;99.90;;;;;;5066458;28;20219;-80
2021/09/22 06:26:53;;;;;;;17.73;14.30;;;9.90;99.90;;;;;;5072823;28;20456;-80
2021/09/22 06:29:20;;;;;;;16.77;13.33;;;10.00;99.90;;;;;;5076428;28;20457;-79
2021/09/22 06:31:46;;;;;;;16.93;15.13;;;10.10;99.90;;;;;;5075569;28;20460;-79
2021/09/22 06:34:14;;;;;;;17.43;14.50;;;10.10;99.90;;;;;;5073796;28;20612;-80
2021/09/22 06:36:41;;;;;;;18.80;14.20;;;10.20;99.90;;;;;;5072747;28;20445;-79
2021/09/22 06:39:08;;;;;;;17.00;15.07;;;10.30;99.90;;;;;;5073253;28;20447;-79
2021/09/22 06:41:35;;;;;;;17.03;14.83;;;10.40;99.90;;;;;;5073734;28;20461;-79
2021/09/22 06:44:02;;;;;;;18.60;16.47;;;10.50;99.90;;;;;;5074808;28;20465;-80
2021/09/22 06:46:31;;;;;;;15.63;14.13;;;10.60;99.90;;;;;;5072927;28;20973;-80
2021/09/22 06:48:57;;;;;;;14.03;12.63;;;10.70;99.90;;;;;;5073701;28;20477;-79
2021/09/22 06:51:43;;;;;;;16.67;13.80;;;10.80;99.90;;;;;;5083645;28;20460;-81
2021/09/22 06:57:44;;;;;;;19.67;15.43;;;11.00;99.90;;;;;;4907824;29;20465;-81
2021/09/22 07:00:13;;;;;;;14.97;13.47;;;11.10;99.90;;;;;;4945943;28;20463;-81
2021/09/22 07:39:45;;;;;;;17.37;15.50;;;12.80;99.90;;;;;;1498767;26;20502;-81
2021/09/22 07:42:50;;;;;;;19.07;14.70;;;12.80;99.90;;;;;;5089349;28;21011;-82
2021/09/22 07:45:24;;;;;;;15.50;13.93;;;12.90;99.90;;;;;;5088558;28;20505;-81
2021/09/22 07:48:14;;;;;;;15.80;14.13;;;12.90;99.90;;;;;;5089355;28;20446;-81
2021/09/22 12:15:08;;;;;;;5.20;4.80;;;30.40;51.90;;;;;;5083022;28;20564;-81
2021/09/22 12:17:36;;;;;;;4.23;3.90;;;29.50;51.40;;;;;;5080945;28;20457;-83
2021/09/22 12:20:05;;;;;;;4.20;3.90;;;28.70;52.20;;;;;;5081285;28;20448;-82
2021/09/22 12:22:34;;;;;;;4.60;4.20;;;27.60;53.20;;;;;;5080647;28;20466;-83
2021/09/22 12:25:01;;;;;;;3.17;2.87;;;27.00;55.00;;;;;;5080252;28;20495;-83
2021/09/22 12:27:30;;;;;;;4.23;3.87;;;26.70;56.60;;;;;;5079707;28;20477;-83
2021/09/22 12:29:59;;;;;;;2.73;2.53;;;26.60;56.30;;;;;;5080411;28;20462;-83
2021/09/22 12:32:29;;;;;;;3.80;3.50;;;26.70;57.90;;;;;;5080332;28;20439;-83
2021/09/22 12:34:57;;;;;;;3.13;2.93;;;27.10;57.60;;;;;;5082068;28;20487;-82
2021/09/22 12:37:25;;;;;;;3.20;2.73;;;27.60;58.40;;;;;;5082346;28;20453;-83
2021/09/22 12:39:58;;;;;;;3.00;2.80;;;28.20;57.00;;;;;;5085164;28;20450;-82
2021/09/22 12:42:36;;;;;;;2.70;2.50;;;28.60;54.80;;;;;;5084078;28;20464;-82
2021/09/22 12:45:06;;;;;;;4.03;3.40;;;29.00;53.70;;;;;;5081481;28;20470;-83
2021/09/22 12:47:36;;;;;;;2.80;2.63;;;29.10;52.60;;;;;;5082306;28;20451;-82
2021/09/22 12:50:13;;;;;;;3.23;3.03;;;29.20;53.20;;;;;;5080440;28;20459;-83
2021/09/22 12:52:43;;;;;;;6.90;3.50;;;29.50;53.20;;;;;;5080345;28;20439;-83
2021/09/22 12:55:15;;;;;;;2.80;2.60;;;29.60;53.10;;;;;;5078986;28;20494;-81
2021/09/22 12:57:42;;;;;;;3.57;3.27;;;29.50;51.80;;;;;;5080254;28;20461;-83
2021/09/22 13:00:44;;;;;;;3.27;3.07;;;29.50;52.90;;;;;;5083138;28;20461;-83
2021/09/22 13:03:22;;;;;;;3.30;3.10;;;29.30;52.60;;;;;;5018830;28;20448;-82
2021/09/22 13:05:51;;;;;;;3.50;3.23;;;28.90;52.80;;;;;;5017523;28;20480;-83
2021/09/22 13:08:20;;;;;;;4.00;3.70;;;28.70;52.70;;;;;;5050858;28;20449;-83
2021/09/22 13:11:05;;;;;;;3.03;2.83;;;28.50;53.80;;;;;;5080071;28;20448;-82
2021/09/22 13:13:46;;;;;;;3.23;3.03;;;28.20;53.90;;;;;;5079420;28;20470;-83
2021/09/22 13:16:31;;;;;;;5.10;3.47;;;27.80;53.80;;;;;;5079209;28;20460;-83
2021/09/22 13:19:01;;;;;;;3.60;3.30;;;27.40;55.60;;;;;;5079621;28;20449;-83
2021/09/22 13:21:27;;;;;;;3.53;3.20;;;27.60;56.10;;;;;;5079824;28;20802;-82
2021/09/22 13:23:57;;;;;;;3.67;3.40;;;27.80;55.00;;;;;;5079558;28;20444;-83
2021/09/22 13:26:25;;;;;;;4.10;2.97;;;28.00;54.90;;;;;;5078657;28;20455;-83
2021/09/22 13:28:53;;;;;;;3.70;3.47;;;28.10;54.70;;;;;;5079364;28;20464;-83
2021/09/22 13:31:20;;;;;;;3.60;3.40;;;27.90;54.70;;;;;;5078890;28;20490;-82
2021/09/22 13:33:48;;;;;;;4.10;3.80;;;27.70;55.40;;;;;;5079309;28;20479;-82
2021/09/22 13:36:16;;;;;;;4.40;4.00;;;27.80;54.20;;;;;;5080234;28;20454;-83
2021/09/22 13:38:43;;;;;;;4.00;3.70;;;27.50;54.70;;;;;;5073710;28;20960;-82
2021/09/22 13:41:10;;;;;;;5.20;4.80;;;27.40;55.60;;;;;;5078595;28;20506;-85
2021/09/22 13:43:37;;;;;;;3.87;3.57;;;27.20;55.30;;;;;;5078948;28;20455;-82
2021/09/22 13:46:05;;;;;;;3.90;3.57;;;27.00;56.40;;;;;;5076336;28;20479;-83
2021/09/22 13:48:32;;;;;;;3.93;3.63;;;27.10;56.20;;;;;;5077170;28;20463;-82
2021/09/22 13:50:59;;;;;;;4.80;4.40;;;27.50;55.50;;;;;;5081072;28;20543;-83
2021/09/22 13:53:27;;;;;;;3.80;3.60;;;27.50;54.20;;;;;;5079163;28;20452;-83
2021/09/22 13:55:57;;;;;;;4.10;3.83;;;27.50;54.40;;;;;;5067138;28;20468;-83
2021/09/22 14:02:34;;;;;;;;;;;;;;;;;;;;;
2021/09/22 15:15:28;;;;;;;4.03;3.73;;;22.20;69.60;;;;;;4858505;28;20526;-83
2021/09/22 15:18:01;;;;;;;4.73;4.33;;;22.30;70.80;;;;;;4982961;28;20826;-83
2021/09/22 15:20:31;;;;;;;4.20;3.90;;;22.30;70.70;;;;;;5020697;28;20442;-85
2021/09/22 15:32:23;;;;;;;4.23;3.93;;;21.60;71.90;;;;;;4805496;29;20455;-83
2021/09/22 15:48:19;;;;;;;3.40;3.10;;;21.20;75.30;;;;;;4939784;28;20443;-83
2021/09/22 16:04:47;;;;;;;3.47;3.03;;;20.50;76.60;;;;;;4788643;29;20452;-83
2021/09/22 16:08:01;;;;;;;;;;;;;;;;;;;;;
2021/09/22 16:14:02;;;;;;;2.80;2.60;;;20.00;77.90;;;;;;4776648;29;20530;-87
2021/09/22 17:26:09;;;;;;;;;;;;;;;;;;;;;
2021/09/22 17:39:27;;;;;;;;;;;;;;;;;;;;;
2021/09/22 19:04:31;;;;;;;6.67;6.10;;;14.00;99.90;;;;;;4833722;29;20440;-86
2021/09/22 19:07:00;;;;;;;7.57;5.77;;;14.00;99.90;;;;;;4885933;29;20456;-87
2021/09/22 19:09:34;;;;;;;5.70;5.20;;;13.90;99.90;;;;;;4899645;29;20963;-85
2021/09/22 19:12:04;;;;;;;6.13;5.53;;;13.90;99.90;;;;;;4969594;29;20997;-86
2021/09/22 19:14:31;;;;;;;4.77;4.37;;;13.80;99.90;;;;;;4969764;28;20502;-86
2021/09/22 19:17:01;;;;;;;5.63;5.23;;;13.80;99.90;;;;;;4978267;28;20451;-85
2021/09/22 19:19:35;;;;;;;6.60;5.10;;;13.80;99.90;;;;;;4979854;28;20460;-85
2021/09/22 19:22:05;;;;;;;5.47;4.97;;;13.80;99.90;;;;;;4962458;28;21011;-85
2021/09/22 19:24:35;;;;;;;7.70;6.20;;;13.70;99.90;;;;;;4960813;28;20503;-85
2021/09/22 19:27:02;;;;;;;8.53;6.10;;;13.70;99.90;;;;;;4962417;29;20449;-85
2021/09/22 19:29:29;;;;;;;5.57;5.17;;;13.70;99.90;;;;;;4961323;29;20813;-86
2021/09/22 19:31:56;;;;;;;7.50;6.53;;;13.60;99.90;;;;;;4960631;29;20443;-85
2021/09/22 19:34:25;;;;;;;5.47;4.97;;;13.60;99.90;;;;;;4991211;28;20482;-85
2021/09/22 19:36:53;;;;;;;5.67;5.20;;;13.50;99.90;;;;;;5054625;28;20447;-85
2021/09/22 19:39:24;;;;;;;6.73;6.13;;;13.50;99.90;;;;;;5063576;28;20444;-85
2021/09/22 19:41:52;;;;;;;8.23;6.00;;;13.50;99.90;;;;;;5071879;28;20511;-85
2021/09/22 19:44:20;;;;;;;7.17;6.43;;;13.40;99.90;;;;;;5062966;28;20553;-85
2021/09/22 19:46:47;;;;;;;7.40;6.60;;;13.40;99.90;;;;;;5070514;28;20452;-85
2021/09/22 19:49:14;;;;;;;6.70;6.10;;;13.40;99.90;;;;;;5060680;28;20469;-85
2021/09/22 19:51:40;;;;;;;6.97;6.37;;;13.30;99.90;;;;;;5066606;28;20463;-85
2021/09/22 19:54:09;;;;;;;7.30;6.30;;;13.30;99.90;;;;;;5073432;28;20463;-85
2021/09/22 19:56:36;;;;;;;7.63;6.83;;;13.30;99.90;;;;;;5068748;28;20506;-85
2021/09/22 19:59:08;;;;;;;7.80;7.10;;;13.20;99.90;;;;;;5080222;28;20447;-85
2021/09/22 20:01:35;;;;;;;7.40;6.80;;;13.20;99.90;;;;;;5065451;28;20469;-85
2021/09/22 20:04:02;;;;;;;7.90;7.07;;;13.20;99.90;;;;;;5076714;28;20450;-85
2021/09/22 20:06:28;;;;;;;8.17;7.47;;;13.10;99.90;;;;;;5068566;28;20452;-85
2021/09/22 20:08:55;;;;;;;7.90;7.20;;;13.10;99.90;;;;;;5071353;28;20451;-85
2021/09/22 20:11:25;;;;;;;7.60;6.80;;;13.00;99.90;;;;;;5070801;28;20941;-85
2021/09/22 20:13:52;;;;;;;10.17;8.10;;;13.00;99.90;;;;;;5073524;28;20483;-85
2021/09/22 20:16:19;;;;;;;7.27;6.57;;;13.00;99.90;;;;;;5065297;28;20479;-85
2021/09/22 20:18:47;;;;;;;6.77;6.17;;;12.90;99.90;;;;;;5061854;28;20543;-85
2021/09/22 20:21:14;;;;;;;7.23;6.60;;;12.90;99.90;;;;;;5067373;28;20802;-85
2021/09/22 20:23:41;;;;;;;8.50;7.40;;;12.80;99.90;;;;;;5062335;28;20460;-85
2021/09/22 20:26:08;;;;;;;9.77;8.87;;;12.80;99.90;;;;;;5060107;28;20484;-85
2021/09/22 20:28:36;;;;;;;7.57;6.80;;;12.80;99.90;;;;;;5066797;28;20451;-85
2021/09/22 20:31:04;;;;;;;11.13;8.07;;;12.80;99.90;;;;;;5062477;28;20459;-85
2021/09/22 20:33:32;;;;;;;8.73;7.90;;;12.80;99.90;;;;;;5069068;28;20485;-85
2021/09/22 20:35:59;;;;;;;9.83;8.10;;;12.70;99.90;;;;;;5067247;28;20506;-85
2021/09/22 21:43:44;;;;;;;10.23;8.33;;;11.90;99.90;;;;;;4811646;29;20464;-85
2021/09/22 22:31:27;;;;;;;8.03;7.30;;;11.40;99.90;;;;;;4940063;28;20443;-85
